createdAt,value
2023-05-07T12:49:19.888Z,31.10
2023-05-07T12:51:47.652Z,46.80
2023-05-07T12:55:45.575Z,48.60
2023-05-07T12:58:22.422Z,72.60
2023-05-07T13:00:51.283Z,45.50
2023-05-07T13:03:26.430Z,48.20
2023-05-07T13:05:53.983Z,24.40
2023-05-07T13:08:37.966Z,20.30
2023-05-07T13:11:05.651Z,18.90
2023-05-07T13:13:33.608Z,19.30
2023-05-07T13:16:01.121Z,20.70
2023-05-07T13:18:28.777Z,30.30
2023-05-07T13:20:55.694Z,20.80
2023-05-07T13:23:22.334Z,19.80
2023-05-07T13:25:50.135Z,23.80
2023-05-07T13:28:17.196Z,19.80
2023-05-07T13:30:43.690Z,20.30
2023-05-07T13:33:10.824Z,18.10
2023-05-07T13:35:37.388Z,20.90
2023-05-07T13:38:04.016Z,19.50
2023-05-07T13:40:30.481Z,19.50
2023-05-07T13:42:59.268Z,20.80
2023-05-07T13:45:25.700Z,19.10
2023-05-07T13:47:53.072Z,19.00
2023-05-07T13:50:19.646Z,14.60
2023-05-07T13:52:47.110Z,20.30
2023-05-07T13:55:13.813Z,15.50
2023-05-07T13:57:40.440Z,17.80
2023-05-07T14:00:07.711Z,18.50
2023-05-07T14:02:34.378Z,19.00
2023-05-07T14:05:00.975Z,16.80
2023-05-07T14:07:27.372Z,18.10
2023-05-07T14:09:53.883Z,16.20
2023-05-07T14:12:20.326Z,18.70
2023-05-07T14:14:46.761Z,13.20
2023-05-07T14:17:14.051Z,14.70
2023-05-07T14:19:40.884Z,14.80
2023-05-07T14:22:07.452Z,15.90
2023-05-07T14:24:38.657Z,16.20
2023-05-07T14:27:05.573Z,13.30
2023-05-07T14:29:32.136Z,12.20
2023-05-07T14:31:58.586Z,15.30
2023-05-07T14:34:25.112Z,16.20
2023-05-07T14:36:51.504Z,14.80
2023-05-07T14:39:17.939Z,16.00
2023-05-07T14:41:44.418Z,15.00
2023-05-07T14:44:10.835Z,15.70
2023-05-07T14:46:37.554Z,14.00
2023-05-07T14:49:04.320Z,15.70
2023-05-07T14:51:30.880Z,12.90
2023-05-07T14:53:57.714Z,12.60
2023-05-07T14:56:24.291Z,13.00
2023-05-07T14:58:51.132Z,14.20
2023-05-07T15:01:17.776Z,11.10
2023-05-07T15:03:44.543Z,13.90
2023-05-07T15:06:11.080Z,12.80
2023-05-07T15:08:37.637Z,12.80
2023-05-07T15:11:04.126Z,14.30
2023-05-07T15:13:30.606Z,13.00
2023-05-07T15:15:57.275Z,17.20
2023-05-07T15:18:24.783Z,19.90
2023-05-07T15:20:51.310Z,16.70
2023-05-07T15:23:17.867Z,13.20
2023-05-07T15:25:44.281Z,15.30
2023-05-07T15:28:10.733Z,16.00
2023-05-07T15:30:37.212Z,16.50
2023-05-07T15:33:03.813Z,16.60
2023-05-07T15:35:30.433Z,15.80
2023-05-07T15:37:56.862Z,18.20
2023-05-07T15:40:23.512Z,13.90
2023-05-07T15:42:50.319Z,14.10
2023-05-07T15:45:16.903Z,14.10
2023-05-07T15:47:43.375Z,14.30
2023-05-07T15:50:10.606Z,16.50
2023-05-07T15:52:37.115Z,17.20
2023-05-07T15:55:03.796Z,19.50
2023-05-07T15:57:30.529Z,16.70
2023-05-07T15:59:57.052Z,17.20
2023-05-07T16:02:23.869Z,18.30
2023-05-07T16:04:50.599Z,18.30
2023-05-07T16:07:17.273Z,19.40
2023-05-07T16:09:43.681Z,15.50
2023-05-07T16:12:10.060Z,13.00
2023-05-07T16:14:36.487Z,15.10
2023-05-07T16:17:02.975Z,17.40
2023-05-07T16:19:32.380Z,14.60
2023-05-07T16:21:58.826Z,13.70
2023-05-07T16:24:25.285Z,16.50
2023-05-07T16:26:51.741Z,19.70
2023-05-07T16:29:18.199Z,32.40
2023-05-07T16:31:44.738Z,24.70
2023-05-07T16:34:11.208Z,22.10
2023-05-07T16:36:37.634Z,23.80
2023-05-07T16:39:04.133Z,29.80
2023-05-07T16:41:30.579Z,44.50
2023-05-07T16:43:57.017Z,25.80
2023-05-07T16:46:23.537Z,24.10
2023-05-07T16:48:50.273Z,23.10
2023-05-07T16:51:16.813Z,22.20
2023-05-07T16:53:43.242Z,23.10
2023-05-07T16:56:09.697Z,20.80
2023-05-07T16:58:36.246Z,26.70
2023-05-07T17:01:03.092Z,21.00
2023-05-07T17:03:29.897Z,21.90
2023-05-07T17:05:56.614Z,18.30
2023-05-07T17:08:23.031Z,14.40
2023-05-07T17:10:49.579Z,16.80
2023-05-07T17:13:16.074Z,15.70
2023-05-07T17:15:42.821Z,14.10
2023-05-07T17:18:09.364Z,14.90
2023-05-07T17:20:35.978Z,14.00
2023-05-07T17:23:02.529Z,16.30
2023-05-07T17:25:28.947Z,15.50
2023-05-07T17:27:55.436Z,14.30
2023-05-07T17:30:22.027Z,13.30
2023-05-07T17:32:48.527Z,16.60
2023-05-07T17:35:15.578Z,21.70
2023-05-07T17:37:42.011Z,19.00
2023-05-07T17:40:09.114Z,14.30
2023-05-07T17:42:35.728Z,15.70
2023-05-07T17:45:02.262Z,14.90
2023-05-07T17:47:28.766Z,19.20
2023-05-07T17:49:55.443Z,19.40
2023-05-07T17:52:22.007Z,19.30
2023-05-07T17:54:48.411Z,23.00
2023-05-07T17:57:14.990Z,17.80
2023-05-07T17:59:41.446Z,19.00
2023-05-07T18:02:07.985Z,18.00
2023-05-07T18:04:34.629Z,15.20
2023-05-07T18:07:01.158Z,23.80
2023-05-07T18:09:27.653Z,17.20
2023-05-07T18:11:54.473Z,30.10
2023-05-07T18:14:20.905Z,30.10
2023-05-07T18:16:47.472Z,19.50
2023-05-07T18:19:14.059Z,19.50
2023-05-07T18:21:40.591Z,28.50
2023-05-07T18:24:07.957Z,19.60
2023-05-07T18:26:34.503Z,31.00
2023-05-07T18:29:00.893Z,18.30
2023-05-07T18:31:27.355Z,22.60
2023-05-07T18:33:54.987Z,16.30
2023-05-07T18:36:22.127Z,17.80
2023-05-07T18:38:48.663Z,25.30
2023-05-07T18:41:15.277Z,23.50
2023-05-07T18:43:42.435Z,19.60
2023-05-07T18:46:08.936Z,26.10
2023-05-07T18:48:35.785Z,15.70
2023-05-07T18:51:03.553Z,21.00
2023-05-07T18:53:29.981Z,18.50
2023-05-07T18:55:56.460Z,25.40
2023-05-07T18:58:23.354Z,23.30
2023-05-07T19:00:50.427Z,17.20
2023-05-07T19:03:17.246Z,18.70
2023-05-07T19:05:44.994Z,23.70
2023-05-07T19:08:11.616Z,22.50
2023-05-07T19:10:39.014Z,20.70
2023-05-07T19:13:06.154Z,17.90
2023-05-07T19:15:32.824Z,17.00
2023-05-07T19:17:59.489Z,19.80
2023-05-07T19:20:26.039Z,28.60
2023-05-07T19:22:52.465Z,17.20
2023-05-07T19:25:18.995Z,18.70
2023-05-07T19:27:45.596Z,11.50
2023-05-07T19:30:12.429Z,14.70
2023-05-07T19:32:39.230Z,14.30
2023-05-07T19:35:06.268Z,17.10
2023-05-07T19:37:32.736Z,15.50
2023-05-07T19:39:59.354Z,14.90
2023-05-07T19:42:25.796Z,17.70
2023-05-07T19:44:52.184Z,15.20
2023-05-07T19:47:18.779Z,25.40
2023-05-07T19:49:45.265Z,18.00
2023-05-07T19:52:11.824Z,13.40
2023-05-07T19:54:38.282Z,12.20
2023-05-07T19:57:04.735Z,18.40
2023-05-07T19:59:31.180Z,14.50
2023-05-07T20:01:57.716Z,16.30
2023-05-07T20:04:24.615Z,12.60
2023-05-07T20:06:51.063Z,11.60
2023-05-07T20:09:17.504Z,13.70
2023-05-07T20:11:43.919Z,15.30
2023-05-07T20:14:10.345Z,12.00
2023-05-07T20:16:37.000Z,11.70
2023-05-07T20:19:03.727Z,11.90
2023-05-07T20:21:30.503Z,15.20
2023-05-07T20:23:57.029Z,9.90
2023-05-07T20:26:23.919Z,12.40
2023-05-07T20:28:50.383Z,15.50
2023-05-07T20:31:16.896Z,11.00
2023-05-07T20:33:43.531Z,12.90
2023-05-07T20:36:10.073Z,11.20
2023-05-07T20:38:36.724Z,10.10
2023-05-07T20:41:11.235Z,11.80
2023-05-07T20:43:38.221Z,11.40
2023-05-07T20:46:05.492Z,15.20
2023-05-07T20:48:32.132Z,9.70
2023-05-07T20:50:59.522Z,13.10
2023-05-07T20:53:28.703Z,10.50
2023-05-07T20:55:55.436Z,8.20
2023-05-07T20:58:22.852Z,11.10
2023-05-07T21:00:49.287Z,16.80
2023-05-07T21:03:16.075Z,12.10
2023-05-07T21:05:42.656Z,11.30
2023-05-07T21:08:09.317Z,8.30
2023-05-07T21:10:35.862Z,13.50
2023-05-07T21:13:02.440Z,9.80
2023-05-07T21:15:28.969Z,9.50
2023-05-07T21:17:55.524Z,8.40
2023-05-07T21:20:22.020Z,7.60
2023-05-07T21:22:48.722Z,10.70
2023-05-07T21:25:15.202Z,10.10
2023-05-07T21:27:41.675Z,10.20
2023-05-07T21:30:08.915Z,8.70
2023-05-07T21:32:35.569Z,9.30
2023-05-07T21:35:02.057Z,9.20
2023-05-07T21:37:28.470Z,9.50
2023-05-07T21:39:55.060Z,11.50
2023-05-07T21:42:23.207Z,11.70
2023-05-07T21:44:50.007Z,10.60
2023-05-07T21:47:16.927Z,10.90
2023-05-07T21:49:43.644Z,12.10
2023-05-07T21:52:14.727Z,13.50
2023-05-07T21:54:41.991Z,12.20
2023-05-07T21:57:08.416Z,12.20
2023-05-07T21:59:34.873Z,15.00
2023-05-07T22:02:01.391Z,12.30
2023-05-07T22:04:28.174Z,9.80
2023-05-07T22:06:55.244Z,12.00
2023-05-07T22:09:21.757Z,10.70
2023-05-07T22:11:48.464Z,12.10
2023-05-07T22:14:14.888Z,14.90
2023-05-07T22:16:41.346Z,12.40
2023-05-07T22:19:07.982Z,15.40
2023-05-07T22:21:34.419Z,13.00
2023-05-07T22:24:01.048Z,12.90
2023-05-07T22:26:27.597Z,16.00
2023-05-07T22:28:54.079Z,12.80
2023-05-07T22:31:20.535Z,12.30
2023-05-07T22:33:47.142Z,13.20
2023-05-07T22:36:13.583Z,11.70
2023-05-07T22:38:40.026Z,16.90
2023-05-07T22:41:06.516Z,11.50
2023-05-07T22:43:32.979Z,12.00
2023-05-07T22:46:00.848Z,12.10
2023-05-07T22:48:28.800Z,12.40
2023-05-07T22:50:55.562Z,10.30
2023-05-07T22:53:22.158Z,10.70
2023-05-07T22:55:48.675Z,8.80
2023-05-07T22:58:15.155Z,7.50
2023-05-07T23:00:41.622Z,9.40
2023-05-07T23:03:08.516Z,9.90
2023-05-07T23:05:35.193Z,9.50
2023-05-07T23:08:01.757Z,10.40
2023-05-07T23:10:28.258Z,9.40
2023-05-07T23:12:54.767Z,9.40
2023-05-07T23:15:21.300Z,10.30
2023-05-07T23:17:47.963Z,10.50
2023-05-07T23:20:15.563Z,9.50
2023-05-07T23:22:42.051Z,10.30
2023-05-07T23:25:09.133Z,8.80
2023-05-07T23:27:35.630Z,11.30
2023-05-07T23:30:02.612Z,9.60
2023-05-07T23:32:31.081Z,9.50
2023-05-07T23:34:57.664Z,10.20
2023-05-07T23:37:24.290Z,10.80
2023-05-07T23:39:54.148Z,10.10
2023-05-07T23:42:20.775Z,11.20
2023-05-07T23:44:48.426Z,11.70
2023-05-07T23:47:15.076Z,11.80
2023-05-07T23:49:41.753Z,8.90
2023-05-07T23:52:08.191Z,12.40
2023-05-07T23:54:34.738Z,11.40
2023-05-07T23:57:01.165Z,11.90
2023-05-07T23:59:28.286Z,11.00
